Time;durP1;ratioP1;P1;durP2;ratioP2;P2;SDS_P1;SDS_P2;PMS_P1;PMS_P2;Temp;Humidity;BMP_temperature;BMP_pressure;BME280_temperature;BME280_humidity;BME280_pressure;Samples;Min_cycle;Max_cycle;Signal;HPM_P1;HPM_P2
2021/07/28 00:02:58;;;;;;;13.27;11.52;;;;;;;17.99;69.43;100880.69;10469604;28;20131;-77
2021/07/28 00:07:59;;;;;;;15.65;11.82;;;;;;;18.05;69.49;100890.66;10486932;28;20048;-77
2021/07/28 00:13:00;;;;;;;13.18;10.77;;;;;;;18.23;68.89;100897.00;10469636;28;20472;-77
2021/07/28 00:18:10;;;;;;;15.32;11.65;;;;;;;18.20;69.17;100892.84;10490709;28;20114;-77
2021/07/28 00:23:14;;;;;;;14.48;12.45;;;;;;;18.12;69.51;100891.34;10467439;28;20442;-77
2021/07/28 00:28:14;;;;;;;13.35;9.38;;;;;;;18.00;69.20;100865.94;10447375;28;20057;-77
2021/07/28 00:33:15;;;;;;;20.05;11.68;;;;;;;17.92;70.00;100874.53;10448234;28;20118;-77
2021/07/28 00:38:15;;;;;;;20.05;13.82;;;;;;;18.10;70.15;100885.28;10449684;28;20116;-77
2021/07/28 00:43:16;;;;;;;15.52;11.95;;;;;;;18.12;69.92;100883.13;10450220;28;20069;-77
2021/07/28 00:48:16;;;;;;;19.10;10.98;;;;;;;18.00;70.26;100868.66;10430097;28;20028;-77
2021/07/28 00:53:18;;;;;;;15.57;11.93;;;;;;;18.23;69.46;100866.84;10449606;28;20049;-77
2021/07/28 00:58:19;;;;;;;22.00;12.68;;;;;;;18.21;69.44;100861.59;10447356;28;20045;-77
2021/07/28 01:03:19;;;;;;;19.20;13.65;;;;;;;18.13;69.58;100853.81;10449432;28;20040;-78
2021/07/28 01:08:20;;;;;;;20.05;13.50;;;;;;;18.08;70.12;100829.06;10444678;28;20029;-77
2021/07/28 01:13:26;;;;;;;27.33;15.02;;;;;;;18.25;69.85;100860.03;10454410;28;20469;-77
2021/07/28 01:18:27;;;;;;;23.00;16.70;;;;;;;18.24;70.29;100852.88;10456295;28;20029;-77
2021/07/28 01:23:28;;;;;;;26.38;15.82;;;;;;;18.30;70.48;100843.66;10438956;28;20041;-77
2021/07/28 01:28:29;;;;;;;19.27;14.93;;;;;;;18.26;70.76;100850.72;10488991;28;20467;-77
2021/07/28 01:33:31;;;;;;;27.95;14.43;;;;;;;18.27;70.40;100822.22;10483766;28;20044;-77
2021/07/28 01:38:32;;;;;;;20.10;14.98;;;;;;;18.24;70.50;100824.66;10486977;28;20127;-77
2021/07/28 01:43:32;;;;;;;23.10;15.05;;;;;;;18.33;70.06;100843.16;10487318;28;20037;-77
2021/07/28 01:48:33;;;;;;;25.05;15.82;;;;;;;18.26;70.44;100830.72;10505583;28;20059;-77
2021/07/28 01:53:33;;;;;;;23.48;16.08;;;;;;;18.34;70.07;100828.38;10486497;28;20039;-77
2021/07/28 01:58:38;;;;;;;23.77;15.98;;;;;;;18.30;70.31;100821.72;10503828;28;20036;-77
2021/07/28 02:03:38;;;;;;;21.65;15.20;;;;;;;18.27;70.52;100824.97;10504073;28;20093;-77
2021/07/28 02:08:38;;;;;;;21.75;15.68;;;;;;;18.43;71.08;100826.03;10504022;28;20037;-77
2021/07/28 02:13:39;;;;;;;24.52;16.80;;;;;;;18.18;69.96;100770.81;10504006;28;20463;-77
2021/07/28 02:18:39;;;;;;;30.13;18.25;;;;;;;18.37;70.65;100821.56;10502552;28;20035;-77
2021/07/28 02:23:42;;;;;;;22.40;17.60;;;;;;;18.44;70.77;100821.38;10475269;28;20336;-77
2021/07/28 02:28:42;;;;;;;27.00;17.60;;;;;;;18.31;70.86;100806.97;10474750;28;20053;-78
2021/07/28 02:33:43;;;;;;;27.70;16.92;;;;;;;18.54;71.08;100827.84;10492771;28;20041;-77
2021/07/28 02:38:43;;;;;;;27.00;16.52;;;;;;;18.20;71.45;100750.31;10495720;28;20067;-77
2021/07/28 02:43:43;;;;;;;31.83;19.88;;;;;;;18.58;71.54;100800.75;10494196;28;20041;-77
2021/07/28 02:48:44;;;;;;;31.30;22.73;;;;;;;18.29;71.72;100743.31;10479348;28;20060;-77
2021/07/28 02:53:45;;;;;;;26.98;22.00;;;;;;;18.84;71.79;100823.06;10497529;28;20050;-77
2021/07/28 02:58:45;;;;;;;36.10;22.67;;;;;;;18.88;72.25;100810.50;10493960;28;20063;-77
2021/07/28 03:03:45;;;;;;;33.15;23.02;;;;;;;19.00;71.77;100820.25;10495755;28;20090;-77
2021/07/28 03:08:46;;;;;;;27.83;22.45;;;;;;;18.85;72.20;100789.06;10495289;28;20194;-77
2021/07/28 03:13:47;;;;;;;26.17;20.83;;;;;;;19.11;71.28;100807.47;10493719;28;20097;-77
2021/07/28 03:18:48;;;;;;;25.75;20.45;;;;;;;18.87;71.33;100784.97;10494914;28;20044;-77
2021/07/28 03:23:49;;;;;;;31.30;21.38;;;;;;;19.10;71.20;100800.34;10495963;28;20044;-77
2021/07/28 03:28:50;;;;;;;32.47;21.30;;;;;;;19.20;71.24;100800.44;10496439;28;20067;-77
2021/07/28 03:33:50;;;;;;;27.48;18.27;;;;;;;19.11;70.93;100810.22;10496378;28;20479;-77
2021/07/28 03:38:50;;;;;;;26.67;17.63;;;;;;;18.83;71.31;100761.88;10492730;28;20076;-77
2021/07/28 03:43:51;;;;;;;22.88;15.45;;;;;;;19.05;70.56;100768.19;10492852;28;20098;-77
2021/07/28 03:48:52;;;;;;;24.30;15.35;;;;;;;19.06;70.74;100796.47;10493649;28;20574;-77
2021/07/28 03:53:52;;;;;;;21.00;15.07;;;;;;;18.89;70.47;100795.69;10491492;28;20028;-78
2021/07/28 03:58:53;;;;;;;19.67;15.15;;;;;;;18.41;71.81;100775.28;10490825;28;20041;-77
2021/07/28 04:03:54;;;;;;;22.25;16.50;;;;;;;18.57;70.92;100785.41;10474703;28;20120;-77
2021/07/28 04:08:54;;;;;;;18.63;15.68;;;;;;;18.72;70.90;100812.19;10494061;28;20059;-77
2021/07/28 04:13:55;;;;;;;23.30;15.57;;;;;;;18.80;71.36;100804.38;10500556;28;20410;-77
2021/07/28 04:18:55;;;;;;;19.92;15.88;;;;;;;18.67;72.28;100807.47;10498963;28;20033;-77
2021/07/28 04:23:55;;;;;;;21.92;16.45;;;;;;;18.65;71.91;100801.41;10480260;28;20032;-78
2021/07/28 04:28:56;;;;;;;22.20;15.02;;;;;;;18.89;71.43;100806.66;10499290;28;20491;-77
2021/07/28 04:33:56;;;;;;;13.65;12.25;;;;;;;18.92;71.04;100800.66;10499089;28;20041;-80
2021/07/28 04:38:59;;;;;;;26.95;13.00;;;;;;;19.03;70.85;100799.72;10481054;28;20120;-79
2021/07/28 04:43:59;;;;;;;17.10;11.23;;;;;;;19.03;70.51;100813.44;10480776;28;20075;-79
2021/07/28 04:49:00;;;;;;;18.90;13.45;;;;;;;18.81;71.26;100767.63;10498678;28;20029;-78
2021/07/28 04:54:00;;;;;;;14.35;11.02;;;;;;;19.34;70.24;100808.31;10480016;28;20063;-80
2021/07/28 04:59:01;;;;;;;9.73;8.82;;;;;;;19.37;70.91;100816.00;10479796;28;20380;-79
2021/07/28 05:04:03;;;;;;;10.23;7.53;;;;;;;19.29;70.79;100807.16;10497576;28;20075;-79
2021/07/28 05:09:03;;;;;;;9.30;7.82;;;;;;;19.86;69.91;100802.25;10484277;28;20040;-78
2021/07/28 05:14:04;;;;;;;8.80;6.88;;;;;;;19.25;69.59;100744.78;10505531;28;20033;-78
2021/07/28 05:19:04;;;;;;;7.43;6.65;;;;;;;19.10;70.19;100774.81;10488295;28;20028;-79
2021/07/28 05:24:05;;;;;;;10.43;9.30;;;;;;;19.22;72.04;100800.22;10501252;28;20499;-78
2021/07/28 05:29:05;;;;;;;10.88;8.60;;;;;;;19.38;70.47;100804.78;10498777;28;20194;-78
2021/07/28 05:34:05;;;;;;;17.02;10.15;;;;;;;19.07;71.16;100787.13;10500044;28;20036;-78
2021/07/28 05:39:06;;;;;;;11.63;10.25;;;;;;;19.89;69.82;100788.81;10499907;28;20055;-78
2021/07/28 05:44:09;;;;;;;14.15;8.95;;;;;;;19.57;70.39;100791.50;10482369;28;20032;-78
2021/07/28 05:49:09;;;;;;;10.02;9.00;;;;;;;20.21;68.76;100794.28;10499975;28;20120;-78
2021/07/28 05:54:10;;;;;;;19.92;8.15;;;;;;;20.54;67.87;100775.78;10505561;28;20044;-78
2021/07/28 05:59:10;;;;;;;8.65;7.38;;;;;;;20.15;68.42;100791.75;10503757;28;20032;-78
2021/07/28 06:04:11;;;;;;;11.80;7.72;;;;;;;19.46;69.38;100716.44;10485882;28;20089;-78
2021/07/28 06:09:11;;;;;;;6.97;6.28;;;;;;;19.96;68.14;100794.06;10503522;28;20479;-78
2021/07/28 06:14:12;;;;;;;8.52;6.70;;;;;;;20.10;67.71;100792.56;10502726;28;20041;-78
2021/07/28 06:19:12;;;;;;;7.57;6.00;;;;;;;19.84;68.30;100785.19;10502157;28;20476;-78
2021/07/28 06:24:12;;;;;;;9.00;5.60;;;;;;;19.71;68.28;100806.50;10485289;28;20364;-77
2021/07/28 06:29:13;;;;;;;8.68;5.97;;;;;;;19.66;69.10;100802.91;10502238;28;20053;-77
2021/07/28 06:34:13;;;;;;;11.13;6.88;;;;;;;19.55;68.40;100804.66;10502710;28;20032;-78
2021/07/28 06:39:14;;;;;;;8.85;7.68;;;;;;;18.91;69.10;100738.66;10501669;28;20040;-78
2021/07/28 06:44:14;;;;;;;12.93;5.88;;;;;;;19.52;69.28;100791.44;10483821;28;20376;-78
2021/07/28 06:49:14;;;;;;;18.13;8.20;;;;;;;19.40;69.20;100797.13;10501989;28;20033;-78
2021/07/28 06:54:15;;;;;;;12.52;8.25;;;;;;;19.41;69.54;100765.81;10501159;28;20049;-78
2021/07/28 06:59:15;;;;;;;11.27;6.68;;;;;;;19.91;68.44;100792.13;10501811;28;20477;-78
2021/07/28 07:04:16;;;;;;;16.83;7.82;;;;;;;19.94;68.02;100783.38;10483379;28;20036;-78
2021/07/28 07:09:16;;;;;;;13.90;6.82;;;;;;;19.63;68.66;100751.19;10500706;28;20365;-78
2021/07/28 07:14:16;;;;;;;6.75;5.88;;;;;;;19.33;67.43;100681.16;10483846;28;20123;-77
2021/07/28 07:19:17;;;;;;;14.32;6.35;;;;;;;20.31;67.53;100785.25;10501102;28;20039;-78
2021/07/28 07:24:17;;;;;;;8.32;6.00;;;;;;;20.28;67.97;100790.47;10501642;28;20068;-78
2021/07/28 07:29:17;;;;;;;10.00;5.93;;;;;;;20.25;68.86;100786.31;10481612;28;20155;-78
2021/07/28 07:34:19;;;;;;;6.57;6.07;;;;;;;20.06;67.17;100739.19;10500474;28;20047;-78
2021/07/28 07:39:20;;;;;;;10.43;5.55;;;;;;;20.14;67.67;100773.63;10501423;28;20033;-78
2021/07/28 07:44:20;;;;;;;9.80;6.50;;;;;;;20.59;65.85;100791.53;10499954;28;20072;-78
2021/07/28 07:49:21;;;;;;;7.15;5.68;;;;;;;20.54;66.82;100795.06;10499198;28;20036;-78
2021/07/28 07:54:21;;;;;;;10.00;5.35;;;;;;;20.26;67.54;100771.50;10499986;28;20051;-77
2021/07/28 07:59:21;;;;;;;11.52;4.68;;;;;;;20.42;68.02;100791.66;10481096;28;20025;-78
2021/07/28 08:04:23;;;;;;;7.32;6.63;;;;;;;20.39;67.13;100794.94;10499510;28;20472;-78
2021/07/28 08:09:24;;;;;;;10.70;4.82;;;;;;;20.45;66.63;100793.88;10498648;28;20491;-78
2021/07/28 08:14:24;;;;;;;10.15;6.53;;;;;;;20.10;65.47;100788.97;10498659;28;20044;-78
2021/07/28 08:19:25;;;;;;;7.07;5.70;;;;;;;20.21;65.61;100780.53;10498831;28;20349;-78
2021/07/28 08:24:25;;;;;;;10.07;6.13;;;;;;;20.17;67.08;100806.06;10498476;28;20464;-78
2021/07/28 08:29:25;;;;;;;7.40;6.28;;;;;;;20.37;66.21;100795.19;10500000;28;20060;-78
2021/07/28 08:34:26;;;;;;;7.45;6.72;;;;;;;20.97;65.27;100795.81;10497920;28;20039;-78
2021/07/28 08:39:26;;;;;;;11.25;6.53;;;;;;;21.11;65.49;100796.97;10497827;28;20028;-78
2021/07/28 08:44:27;;;;;;;9.30;5.47;;;;;;;20.61;64.40;100790.16;10497022;28;20064;-78
2021/07/28 08:49:27;;;;;;;7.15;6.10;;;;;;;20.85;66.03;100806.22;10462541;28;20071;-78
2021/07/28 08:54:28;;;;;;;12.30;7.60;;;;;;;20.74;65.61;100804.50;10479760;28;20064;-78
2021/07/28 08:59:32;;;;;;;13.68;6.55;;;;;;;20.50;66.90;100801.34;10463379;28;20036;-78
2021/07/28 09:04:33;;;;;;;7.10;5.88;;;;;;;20.45;66.33;100799.38;10497508;28;20063;-78
2021/07/28 09:09:33;;;;;;;13.35;5.90;;;;;;;20.05;66.52;100792.50;10497947;28;20052;-78
2021/07/28 09:14:37;;;;;;;8.18;5.97;;;;;;;20.49;66.58;100791.44;10462042;28;20037;-78
2021/07/28 09:19:41;;;;;;;5.95;5.45;;;;;;;21.01;63.91;100805.19;10497039;28;20040;-78
2021/07/28 09:24:44;;;;;;;11.43;6.32;;;;;;;21.48;63.88;100754.66;10496020;28;20105;-78
2021/07/28 09:29:44;;;;;;;10.98;5.05;;;;;;;21.54;64.64;100807.88;10453796;28;20124;-78
2021/07/28 09:34:44;;;;;;;10.05;5.20;;;;;;;21.36;63.20;100796.25;10437340;28;20106;-79
2021/07/28 09:39:46;;;;;;;6.95;5.07;;;;;;;21.82;63.13;100800.97;10455318;28;20033;-77
2021/07/28 09:44:48;;;;;;;9.82;5.78;;;;;;;22.01;62.38;100806.78;10454246;28;20037;-78
2021/07/28 09:49:57;;;;;;;6.32;5.82;;;;;;;22.18;62.11;100809.31;10453798;28;20057;-78
2021/07/28 09:54:58;;;;;;;11.60;5.05;;;;;;;22.34;62.76;100805.41;10459040;28;20171;-78
2021/07/28 10:00:05;;;;;;;8.35;5.28;;;;;;;22.34;63.63;100788.03;10462601;28;20072;-78
2021/07/28 10:05:06;;;;;;;6.43;5.20;;;;;;;22.46;61.19;100805.94;10460603;28;20037;-78
2021/07/28 10:10:11;;;;;;;17.73;6.80;;;;;;;23.53;60.69;100790.03;10460629;28;20036;-78
2021/07/28 10:15:12;;;;;;;6.40;4.65;;;;;;;23.76;57.29;100803.16;10444447;28;20082;-78
2021/07/28 10:20:15;;;;;;;6.30;3.92;;;;;;;24.25;58.35;100796.66;10459720;28;20079;-78
2021/07/28 10:25:16;;;;;;;6.25;4.50;;;;;;;24.01;54.67;100790.22;10447080;28;20475;-77
2021/07/28 10:30:19;;;;;;;8.70;4.80;;;;;;;23.39;59.11;100790.66;10467135;28;20036;-78
2021/07/28 10:35:24;;;;;;;4.75;3.67;;;;;;;23.57;58.31;100778.09;10485364;28;20044;-78
2021/07/28 10:40:24;;;;;;;19.15;5.18;;;;;;;23.44;58.28;100787.84;10501306;28;20135;-78
2021/07/28 10:45:25;;;;;;;5.50;4.77;;;;;;;23.08;58.15;100764.31;10483563;28;20123;-79
2021/07/28 10:50:33;;;;;;;12.45;3.95;;;;;;;23.13;58.95;100801.03;10502103;28;20358;-79
2021/07/28 10:55:37;;;;;;;14.63;4.00;;;;;;;22.48;58.04;100726.44;10501539;28;20044;-79
2021/07/28 11:00:38;;;;;;;9.57;4.43;;;;;;;23.58;58.13;100804.63;10468266;28;20507;-79
2021/07/28 11:05:39;;;;;;;5.88;3.90;;;;;;;23.73;56.59;100817.53;10500131;28;20119;-79
2021/07/28 11:11:01;;;;;;;13.88;3.88;;;;;;;24.34;57.91;100814.25;10483256;28;20041;-78
2021/07/28 11:16:02;;;;;;;7.45;3.63;;;;;;;25.13;54.83;100807.59;10501829;28;20040;-79
2021/07/28 11:21:16;;;;;;;12.55;3.08;;;;;;;25.35;52.46;100769.03;10500276;28;20063;-79
2021/07/28 11:26:22;;;;;;;3.53;3.28;;;;;;;26.28;52.70;100794.16;10482598;28;20056;-79
2021/07/28 11:31:26;;;;;;;8.18;3.97;;;;;;;25.80;51.10;100799.13;10482438;28;20028;-79
2021/07/28 11:36:27;;;;;;;5.80;4.05;;;;;;;26.75;50.61;100805.25;10481749;28;20036;-79
2021/07/28 11:41:27;;;;;;;4.28;2.95;;;;;;;26.22;51.32;100812.03;10500651;28;20044;-79
2021/07/28 11:46:27;;;;;;;5.93;3.97;;;;;;;26.90;50.82;100797.44;10481067;28;20475;-79
2021/07/28 11:51:38;;;;;;;2.97;2.75;;;;;;;26.28;50.21;100826.66;10465954;28;20032;-79
2021/07/28 11:56:49;;;;;;;6.65;3.47;;;;;;;25.81;54.19;100820.22;10473771;28;20179;-79
2021/07/28 12:01:53;;;;;;;7.57;3.95;;;;;;;26.17;51.43;100765.78;10472536;28;20115;-79
2021/07/28 12:06:54;;;;;;;6.25;2.97;;;;;;;26.34;51.27;100820.69;10492928;28;20100;-79
2021/07/28 12:11:54;;;;;;;5.90;3.95;;;;;;;26.72;50.05;100828.91;10460859;28;20353;-80
2021/07/28 12:16:58;;;;;;;6.73;3.93;;;;;;;26.30;49.66;100808.56;10477750;28;20036;-79
2021/07/28 12:22:09;;;;;;;5.22;4.25;;;;;;;24.83;55.70;100802.13;10477343;28;20289;-78
2021/07/28 12:27:25;;;;;;;14.90;5.22;;;;;;;22.15;61.97;100868.56;10473144;28;20240;-78
2021/07/28 12:32:45;;;;;;;5.68;4.28;;;;;;;21.61;66.40;100857.19;10471691;28;20040;-78
2021/07/28 12:37:45;;;;;;;5.22;4.22;;;;;;;22.74;64.21;100837.59;10473540;28;20098;-79
2021/07/28 12:42:46;;;;;;;4.00;3.75;;;;;;;23.67;63.85;100862.91;10459048;28;20034;-79
2021/07/28 12:47:47;;;;;;;8.35;4.35;;;;;;;24.39;62.17;100860.44;10479052;28;20035;-81
2021/07/28 12:52:48;;;;;;;6.75;4.50;;;;;;;23.50;63.36;100865.22;10476506;28;20151;-80
2021/07/28 12:57:49;;;;;;;9.82;4.60;;;;;;;24.36;61.01;100834.16;10455319;28;20130;-81
2021/07/28 13:02:50;;;;;;;7.75;4.70;;;;;;;23.80;60.42;100854.00;10473500;28;20060;-81
2021/07/28 13:12:54;;;;;;;7.13;5.32;;;;;;;21.58;64.74;100884.19;10456004;28;20029;-80
2021/07/28 13:17:55;;;;;;;4.70;3.08;;;;;;;20.64;67.20;100880.44;10470369;28;20036;-78
2021/07/28 13:22:55;;;;;;;3.92;3.53;;;;;;;20.57;67.83;100873.47;10490999;28;20395;-78
2021/07/28 13:27:57;;;;;;;4.47;4.00;;;;;;;21.05;68.38;100888.91;10491483;28;20101;-79
2021/07/28 13:33:01;;;;;;;4.15;3.72;;;;;;;21.26;68.06;100895.34;10497857;28;20061;-78
2021/07/28 13:38:02;;;;;;;8.80;4.40;;;;;;;21.03;67.63;100891.09;10478197;28;20381;-79
2021/07/28 13:43:03;;;;;;;5.47;3.97;;;;;;;20.91;68.14;100893.25;10444355;28;20059;-79
2021/07/28 13:48:04;;;;;;;11.38;3.70;;;;;;;20.96;67.51;100889.69;10497941;28;20028;-78
2021/07/28 13:53:06;;;;;;;15.85;5.85;;;;;;;21.64;67.61;100895.25;10481999;28;20098;-79
2021/07/28 13:58:06;;;;;;;8.23;5.65;;;;;;;21.51;66.53;100891.06;10498249;28;20111;-78
2021/07/28 14:03:08;;;;;;;9.95;3.97;;;;;;;21.88;64.79;100901.88;10478614;28;20131;-78
2021/07/28 14:08:12;;;;;;;18.38;4.35;;;;;;;22.47;62.57;100887.63;10496697;28;20056;-78
2021/07/28 14:13:12;;;;;;;13.20;4.63;;;;;;;22.03;60.62;100890.88;10463488;28;20048;-80
2021/07/28 14:18:13;;;;;;;13.02;5.53;;;;;;;22.31;59.96;100908.03;10477216;28;20136;-80
2021/07/28 14:23:13;;;;;;;4.28;3.88;;;;;;;22.36;58.15;100918.22;10493586;28;20109;-80
2021/07/28 14:28:14;;;;;;;12.07;3.97;;;;;;;22.38;57.79;100913.28;10459436;28;20056;-80
2021/07/28 14:33:14;;;;;;;13.95;3.97;;;;;;;22.43;57.71;100845.13;10459987;28;20127;-79
2021/07/28 14:38:15;;;;;;;8.30;4.03;;;;;;;22.71;56.18;100898.06;10459979;28;20052;-79
2021/07/28 14:43:16;;;;;;;8.40;3.85;;;;;;;23.02;55.75;100914.59;10493974;28;20424;-79
2021/07/28 14:48:16;;;;;;;17.92;3.90;;;;;;;22.61;55.20;100885.09;10474374;28;20032;-79
2021/07/28 14:53:17;;;;;;;8.02;4.43;;;;;;;22.40;56.13;100887.06;10473696;28;20046;-78
2021/07/28 14:58:17;;;;;;;7.55;3.92;;;;;;;22.66;54.75;100900.84;10471966;28;20123;-79
2021/07/28 15:03:18;;;;;;;5.57;2.83;;;;;;;22.59;54.37;100897.53;10472411;28;20053;-78
2021/07/28 15:08:19;;;;;;;5.05;3.50;;;;;;;22.43;54.46;100891.19;10472206;28;20036;-78
2021/07/28 15:13:19;;;;;;;11.40;3.35;;;;;;;22.16;53.27;100894.25;10472256;28;20154;-78
2021/07/28 15:18:20;;;;;;;5.97;3.13;;;;;;;22.06;56.29;100892.28;10471406;28;20047;-78
2021/07/28 15:23:20;;;;;;;10.40;2.90;;;;;;;22.83;53.13;100876.50;10492260;28;20063;-79
2021/07/28 15:28:21;;;;;;;4.15;3.42;;;;;;;23.40;50.52;100855.06;10491613;28;20072;-79
2021/07/28 15:33:25;;;;;;;3.97;2.80;;;;;;;24.01;51.09;100904.47;10489073;28;20154;-78
2021/07/28 15:38:25;;;;;;;6.95;4.00;;;;;;;22.85;51.05;100765.78;10472226;28;20036;-78
2021/07/28 15:43:26;;;;;;;9.77;3.42;;;;;;;24.22;51.86;100896.00;10455091;28;20116;-78
2021/07/28 15:48:26;;;;;;;15.40;3.42;;;;;;;24.14;51.59;100884.44;10471961;28;20033;-79
2021/07/28 15:53:30;;;;;;;13.30;3.50;;;;;;;24.11;51.02;100914.63;10488600;28;20041;-79
2021/07/28 15:58:31;;;;;;;2.60;2.40;;;;;;;24.13;50.43;100879.22;10453351;28;20363;-79
2021/07/28 16:03:32;;;;;;;8.35;3.10;;;;;;;24.12;48.16;100877.53;10487502;28;20127;-79
2021/07/28 16:08:32;;;;;;;6.03;3.08;;;;;;;23.94;47.86;100886.56;10486150;28;20108;-79
2021/07/28 16:13:33;;;;;;;3.30;2.10;;;;;;;23.65;48.08;100901.09;10468875;28;20040;-78
2021/07/28 16:18:49;;;;;;;6.47;3.15;;;;;;;23.13;49.20;100811.25;10488692;28;20032;-78
2021/07/28 16:23:50;;;;;;;5.43;2.83;;;;;;;23.66;49.61;100883.38;10454381;28;20496;-79
2021/07/28 16:28:52;;;;;;;3.08;2.78;;;;;;;23.35;50.00;100847.59;10488031;28;20052;-79
2021/07/28 16:33:53;;;;;;;4.82;3.17;;;;;;;23.33;50.46;100899.56;10489300;28;20043;-78
2021/07/28 16:38:53;;;;;;;5.20;2.58;;;;;;;23.05;51.32;100881.72;10489844;28;20088;-78
2021/07/28 16:43:54;;;;;;;13.13;2.92;;;;;;;22.98;52.14;100873.72;10491087;28;20414;-78
2021/07/28 16:48:54;;;;;;;5.95;4.05;;;;;;;22.88;52.46;100873.75;10490554;28;20029;-78
2021/07/28 16:53:57;;;;;;;14.20;4.03;;;;;;;22.62;53.17;100878.50;10490416;28;20340;-78
2021/07/28 16:58:57;;;;;;;11.27;4.00;;;;;;;22.30;53.44;100876.03;10488839;28;20090;-78
2021/07/28 17:03:58;;;;;;;7.10;2.75;;;;;;;21.97;52.03;100871.84;10492320;28;20033;-79
2021/07/28 17:08:58;;;;;;;2.40;2.20;;;;;;;21.87;53.09;100872.66;10497561;28;20032;-78
2021/07/28 17:13:59;;;;;;;6.25;2.70;;;;;;;21.66;52.69;100865.47;10479447;28;20127;-79
2021/07/28 17:18:59;;;;;;;4.38;2.38;;;;;;;21.34;50.81;100874.69;10479147;28;20117;-78
2021/07/28 17:24:00;;;;;;;9.35;2.60;;;;;;;21.59;50.88;100872.06;10462418;28;20032;-78
2021/07/28 17:29:01;;;;;;;6.00;2.53;;;;;;;21.57;52.97;100862.44;10497605;28;20490;-78
2021/07/28 17:34:01;;;;;;;14.38;3.22;;;;;;;21.40;52.39;100862.63;10496514;28;20060;-78
2021/07/28 17:39:05;;;;;;;12.30;4.22;;;;;;;21.48;53.46;100850.28;10495477;28;20096;-78
2021/07/28 17:44:06;;;;;;;5.65;3.17;;;;;;;21.62;52.77;100867.94;10477432;28;20121;-78
2021/07/28 17:49:07;;;;;;;4.38;3.05;;;;;;;21.63;53.25;100858.56;10477180;28;20514;-79
2021/07/28 17:54:08;;;;;;;12.75;4.05;;;;;;;21.19;52.68;100863.66;10477743;28;20044;-78
2021/07/28 17:59:08;;;;;;;5.60;2.95;;;;;;;21.07;53.27;100842.66;10497788;28;20073;-79
2021/07/28 18:04:18;;;;;;;6.95;2.67;;;;;;;21.19;53.13;100836.94;10478715;28;20448;-78
2021/07/28 18:09:19;;;;;;;2.47;2.28;;;;;;;21.21;54.65;100856.75;10480036;28;20040;-78
2021/07/28 18:14:19;;;;;;;8.60;3.72;;;;;;;21.15;53.92;100838.56;10498422;28;20036;-79
2021/07/28 18:19:20;;;;;;;6.65;2.88;;;;;;;21.20;53.97;100851.53;10499198;28;20339;-79
2021/07/28 18:24:20;;;;;;;2.92;2.15;;;;;;;20.71;54.63;100796.78;10463340;28;20044;-79
2021/07/28 18:29:21;;;;;;;9.52;3.00;;;;;;;21.06;54.91;100856.72;10464581;28;20045;-78
2021/07/28 18:34:22;;;;;;;3.72;2.67;;;;;;;21.11;54.53;100857.53;10498109;28;20106;-79
2021/07/28 18:39:22;;;;;;;6.93;2.08;;;;;;;20.44;55.76;100761.97;10497347;28;20029;-75
2021/07/28 18:44:23;;;;;;;11.65;3.10;;;;;;;20.77;55.44;100862.63;10463291;28;20043;-75
2021/07/28 18:49:23;;;;;;;13.15;3.25;;;;;;;20.83;56.03;100879.97;10497410;28;20440;-75
2021/07/28 18:54:23;;;;;;;6.97;2.70;;;;;;;20.31;56.70;100864.19;10496557;28;20417;-74
2021/07/28 18:59:24;;;;;;;3.47;2.38;;;;;;;20.20;55.67;100842.13;10478877;28;20124;-75
2021/07/28 19:04:24;;;;;;;7.47;2.40;;;;;;;20.16;54.29;100865.72;10495792;28;20139;-75
2021/07/28 19:09:25;;;;;;;3.38;1.95;;;;;;;20.11;55.15;100867.59;10496046;28;20028;-75
2021/07/28 19:14:25;;;;;;;8.68;3.38;;;;;;;19.87;55.33;100867.09;10495559;28;20063;-75
2021/07/28 19:19:25;;;;;;;3.85;1.73;;;;;;;19.63;57.18;100878.38;10494828;28;20442;-75
2021/07/28 19:24:27;;;;;;;12.98;3.13;;;;;;;19.40;56.99;100859.44;10494700;28;20035;-75
2021/07/28 19:29:28;;;;;;;3.60;2.67;;;;;;;18.84;57.60;100781.91;10493286;28;20056;-75
2021/07/28 19:34:29;;;;;;;2.20;2.00;;;;;;;19.26;57.54;100876.31;10494339;28;20036;-75
2021/07/28 19:39:29;;;;;;;14.63;2.47;;;;;;;19.29;57.95;100874.97;10493732;28;20052;-75
2021/07/28 19:44:30;;;;;;;1.83;1.67;;;;;;;19.09;57.76;100861.81;10476108;28;20450;-74
2021/07/28 19:49:30;;;;;;;4.63;2.70;;;;;;;19.24;57.34;100864.75;10475317;28;20081;-74
2021/07/28 19:54:32;;;;;;;2.70;1.98;;;;;;;19.09;57.36;100872.81;10491914;28;20056;-74
2021/07/28 19:59:32;;;;;;;7.10;2.90;;;;;;;19.03;56.87;100868.31;10491118;28;20102;-74
2021/07/28 20:04:33;;;;;;;1.85;1.65;;;;;;;19.15;57.06;100866.28;10456581;28;20097;-78
2021/07/28 20:09:33;;;;;;;1.58;1.48;;;;;;;19.04;56.81;100853.50;10490709;28;20107;-77
2021/07/28 20:14:34;;;;;;;9.27;3.38;;;;;;;19.01;57.84;100843.03;10456403;28;20111;-78
2021/07/28 20:19:34;;;;;;;7.30;2.20;;;;;;;18.95;57.35;100817.47;10471311;28;20115;-77
2021/07/28 20:24:35;;;;;;;6.03;2.88;;;;;;;18.55;59.02;100777.41;10471847;28;20036;-78
2021/07/28 20:29:35;;;;;;;4.93;2.60;;;;;;;19.35;57.41;100854.72;10446695;28;20064;-77
2021/07/28 20:34:35;;;;;;;2.00;1.77;;;;;;;19.64;57.54;100854.50;10448965;28;20463;-77
2021/07/28 20:39:36;;;;;;;11.80;3.50;;;;;;;19.55;58.13;100859.59;10429192;28;20156;-78
2021/07/28 20:44:36;;;;;;;6.30;2.00;;;;;;;19.57;57.81;100862.94;10448345;28;20472;-79
2021/07/28 20:49:37;;;;;;;4.93;2.60;;;;;;;19.63;59.99;100864.66;10431071;28;20057;-79
2021/07/28 20:54:37;;;;;;;4.53;2.15;;;;;;;19.57;59.71;100840.13;10446957;28;20033;-79
2021/07/28 20:59:38;;;;;;;6.57;2.00;;;;;;;19.54;58.36;100854.38;10450129;28;20120;-79
2021/07/28 21:04:39;;;;;;;12.77;2.50;;;;;;;19.28;58.74;100843.94;10448112;28;20117;-79
2021/07/28 21:09:39;;;;;;;6.63;2.53;;;;;;;19.23;58.81;100821.91;10453947;28;20044;-79
2021/07/28 21:14:39;;;;;;;7.47;2.08;;;;;;;19.20;58.95;100803.19;10439635;28;20037;-78
2021/07/28 21:19:40;;;;;;;5.32;2.75;;;;;;;19.60;58.24;100856.91;10436434;28;20037;-79
2021/07/28 21:24:41;;;;;;;4.05;2.58;;;;;;;19.41;58.00;100830.91;10450273;28;20047;-78
2021/07/28 21:29:41;;;;;;;3.75;2.13;;;;;;;19.59;58.64;100851.66;10449089;28;20065;-78
2021/07/28 21:34:42;;;;;;;4.68;2.40;;;;;;;19.44;59.27;100849.59;10447943;28;20055;-78
2021/07/28 21:39:42;;;;;;;3.40;2.53;;;;;;;19.40;59.57;100834.72;10431570;28;20122;-78
2021/07/28 21:44:46;;;;;;;5.40;3.20;;;;;;;19.46;58.22;100839.19;10450427;28;20120;-78
2021/07/28 21:49:56;;;;;;;6.68;2.10;;;;;;;19.47;59.16;100836.19;10451526;28;20029;-77
2021/07/28 21:55:06;;;;;;;5.40;1.98;;;;;;;19.48;59.62;100831.53;10453832;28;20473;-78
2021/07/28 22:00:08;;;;;;;9.73;2.28;;;;;;;19.40;58.15;100812.75;10452561;28;20056;-77
2021/07/28 22:05:09;;;;;;;7.22;2.72;;;;;;;19.31;59.23;100828.06;10451831;28;20025;-78
2021/07/28 22:10:10;;;;;;;10.63;2.95;;;;;;;19.39;59.05;100813.84;10435462;28;20110;-77
2021/07/28 22:15:11;;;;;;;2.80;2.00;;;;;;;19.64;58.70;100810.56;10452938;28;20121;-78
2021/07/28 22:20:16;;;;;;;9.05;3.55;;;;;;;19.56;59.29;100830.22;10434478;28;20123;-77
2021/07/28 22:25:18;;;;;;;12.00;3.55;;;;;;;18.38;63.17;100811.41;10452995;28;20033;-76
2021/07/28 22:30:19;;;;;;;2.97;2.67;;;;;;;17.99;65.06;100808.63;10484497;28;20114;-76
2021/07/28 22:35:19;;;;;;;3.42;2.35;;;;;;;17.93;66.17;100807.69;10494415;28;20098;-75
2021/07/28 22:40:21;;;;;;;7.75;3.72;;;;;;;17.77;67.41;100806.63;10476304;28;20127;-77
2021/07/28 22:45:23;;;;;;;13.00;3.72;;;;;;;17.69;67.53;100787.84;10494928;28;20047;-76
2021/07/28 22:55:42;;;;;;;11.38;4.82;;;;;;;17.55;68.20;100781.84;10495005;28;20040;-77
2021/07/28 23:11:22;;;;;;;5.28;1.50;;;;;;;17.27;63.41;100811.97;10435577;28;20147;-78
2021/07/28 23:16:23;;;;;;;3.17;1.73;;;;;;;17.30;62.50;100806.84;10494915;28;20036;-78